createdAt,value
2017-11-26T00:03:47.190Z,100138.28
2017-11-26T00:06:13.423Z,100130.75
2017-11-26T00:08:39.773Z,100130.58
2017-11-26T00:11:06.022Z,100130.58
2017-11-26T00:13:32.244Z,100133.83
2017-11-26T00:15:58.505Z,100133.73
2017-11-26T00:18:24.742Z,100129.34
2017-11-26T00:20:50.983Z,100132.27
2017-11-26T00:23:17.256Z,100139.23
2017-11-26T00:25:44.456Z,100133.65
2017-11-26T00:28:10.801Z,100133.14
2017-11-26T00:30:37.072Z,100135.30
2017-11-26T00:33:03.324Z,100139.28
2017-11-26T00:35:29.744Z,100140.52
2017-11-26T00:37:56.045Z,100139.15
2017-11-26T00:40:22.269Z,100137.81
2017-11-26T00:42:48.488Z,100140.62
2017-11-26T00:45:14.745Z,100136.35
2017-11-26T00:47:41.082Z,100135.70
2017-11-26T00:50:07.336Z,100137.08
2017-11-26T00:52:33.643Z,100132.92
2017-11-26T00:54:59.878Z,100131.53
2017-11-26T00:57:26.124Z,100130.25
2017-11-26T00:59:52.386Z,100135.02
2017-11-26T01:02:18.617Z,100129.61
2017-11-26T01:04:44.852Z,100130.52
2017-11-26T01:07:11.113Z,100129.38
2017-11-26T01:09:37.344Z,100122.16
2017-11-26T01:12:03.571Z,100116.88
2017-11-26T01:14:29.812Z,100113.48
2017-11-26T01:16:56.041Z,100109.41
2017-11-26T01:19:22.259Z,100114.69
2017-11-26T01:21:48.686Z,100115.09
2017-11-26T01:24:14.932Z,100116.11
2017-11-26T01:26:41.142Z,100116.11
2017-11-26T01:29:07.394Z,100110.05
2017-11-26T01:31:33.638Z,100107.48
2017-11-26T01:33:59.889Z,100105.47
2017-11-26T01:36:26.182Z,100108.12
2017-11-26T01:38:52.404Z,100102.91
2017-11-26T01:41:18.644Z,100097.08
2017-11-26T01:43:44.927Z,100090.98
2017-11-26T01:46:11.168Z,100094.70
2017-11-26T01:48:37.408Z,100092.44
2017-11-26T01:51:03.681Z,100093.91
2017-11-26T01:53:29.919Z,100094.33
2017-11-26T01:55:56.150Z,100093.82
2017-11-26T01:58:22.494Z,100092.08
2017-11-26T02:00:48.749Z,100089.23
2017-11-26T02:03:15.078Z,100091.06
2017-11-26T02:05:41.337Z,100084.92
2017-11-26T02:08:07.632Z,100082.48
2017-11-26T02:10:33.864Z,100078.27
2017-11-26T02:13:00.153Z,100078.15
2017-11-26T02:15:26.512Z,100076.41
2017-11-26T02:17:52.744Z,100083.41
2017-11-26T02:20:19.028Z,100082.83
2017-11-26T02:22:45.280Z,100088.05
2017-11-26T02:25:11.643Z,100082.69
2017-11-26T02:27:38.293Z,100074.66
2017-11-26T02:30:04.530Z,100076.68
2017-11-26T02:32:30.778Z,100081.23
2017-11-26T02:34:57.051Z,100083.78
2017-11-26T02:37:23.297Z,100082.45
2017-11-26T02:39:49.558Z,100075.91
2017-11-26T02:42:15.816Z,100082.43
2017-11-26T02:44:42.058Z,100083.34
2017-11-26T02:47:08.431Z,100084.75
2017-11-26T02:49:34.718Z,100082.53
2017-11-26T02:52:01.069Z,100084.63
2017-11-26T02:54:27.300Z,100081.56
2017-11-26T02:56:53.559Z,100080.87
2017-11-26T02:59:19.838Z,100086.01
2017-11-26T03:01:46.077Z,100086.69
2017-11-26T03:04:12.351Z,100079.41
2017-11-26T03:06:38.583Z,100080.05
2017-11-26T03:09:04.824Z,100083.08
2017-11-26T03:11:31.105Z,100086.61
2017-11-26T03:13:57.348Z,100091.42
2017-11-26T03:16:23.572Z,100085.96
2017-11-26T03:18:49.874Z,100081.43
2017-11-26T03:21:16.126Z,100083.77
2017-11-26T03:23:42.375Z,100083.27
2017-11-26T03:26:08.635Z,100075.66
2017-11-26T03:28:34.887Z,100071.16
2017-11-26T03:31:01.118Z,100071.33
2017-11-26T03:33:27.423Z,100072.89
2017-11-26T03:35:53.652Z,100070.01
2017-11-26T03:38:19.904Z,100075.97
2017-11-26T03:40:46.254Z,100070.95
2017-11-26T03:43:12.478Z,100070.89
2017-11-26T03:45:38.703Z,100072.72
2017-11-26T03:48:04.962Z,100067.59
2017-11-26T03:50:31.191Z,100064.70
2017-11-26T03:52:57.440Z,100063.89
2017-11-26T03:55:23.861Z,100068.28
2017-11-26T03:57:50.097Z,100061.73
2017-11-26T04:00:16.323Z,100056.58
2017-11-26T04:02:42.586Z,100060.14
2017-11-26T04:05:08.816Z,100058.92
2017-11-26T04:07:35.054Z,100056.12
2017-11-26T04:10:01.335Z,100050.08
2017-11-26T04:12:27.593Z,100044.52
2017-11-26T04:14:53.808Z,100042.03
2017-11-26T04:17:20.089Z,100044.86
2017-11-26T04:19:46.346Z,100043.23
2017-11-26T04:22:12.573Z,100045.28
2017-11-26T04:24:39.017Z,100041.39
2017-11-26T04:27:05.254Z,100039.08
2017-11-26T04:29:31.498Z,100039.16
2017-11-26T04:31:57.770Z,100036.67
2017-11-26T04:34:23.995Z,100039.55
2017-11-26T04:36:50.220Z,100040.14
2017-11-26T04:39:16.492Z,100033.17
2017-11-26T04:41:42.729Z,100036.91
2017-11-26T04:44:08.951Z,100038.00
2017-11-26T04:46:35.229Z,100038.50
2017-11-26T04:49:01.463Z,100036.15
2017-11-26T04:51:27.701Z,100044.86
2017-11-26T04:53:53.978Z,100049.68
2017-11-26T04:56:20.212Z,100043.55
2017-11-26T04:58:46.429Z,100047.36
2017-11-26T05:01:12.691Z,100047.77
2017-11-26T05:03:38.919Z,100040.72
2017-11-26T05:06:05.161Z,100038.39
2017-11-26T05:08:31.458Z,100035.44
2017-11-26T05:10:57.676Z,100034.09
2017-11-26T05:13:23.917Z,100029.36
2017-11-26T05:15:50.198Z,100031.12
2017-11-26T05:18:16.425Z,100034.17
2017-11-26T05:20:42.668Z,100029.45
2017-11-26T05:23:08.931Z,100029.19
2017-11-26T05:25:35.161Z,100026.15
2017-11-26T05:28:01.407Z,100030.52
2017-11-26T05:30:27.659Z,100038.55
2017-11-26T05:32:53.880Z,100035.83
2017-11-26T05:35:20.104Z,100031.60
2017-11-26T05:37:46.379Z,100031.77
2017-11-26T05:40:12.606Z,100038.28
2017-11-26T05:42:38.849Z,100028.02
2017-11-26T05:45:05.127Z,100032.80
2017-11-26T05:47:31.372Z,100039.09
2017-11-26T05:49:57.620Z,100022.43
2017-11-26T05:52:23.877Z,100034.54
2017-11-26T05:54:50.103Z,100038.59
2017-11-26T05:57:16.328Z,100033.05
2017-11-26T05:59:42.625Z,100032.23
2017-11-26T06:02:08.868Z,100037.78
2017-11-26T06:04:35.100Z,100039.95
2017-11-26T06:07:01.360Z,100035.12
2017-11-26T06:09:27.589Z,100034.55
2017-11-26T06:11:53.815Z,100032.06
2017-11-26T06:14:20.073Z,100033.97
2017-11-26T06:16:46.302Z,100032.99
2017-11-26T06:19:12.529Z,100024.32
2017-11-26T06:21:38.804Z,100022.92
2017-11-26T06:24:05.062Z,100021.59
2017-11-26T06:26:31.285Z,100025.31
2017-11-26T06:28:57.551Z,100019.78
2017-11-26T06:31:23.784Z,100016.06
2017-11-26T06:33:50.152Z,100024.16
2017-11-26T06:36:16.428Z,100023.25
2017-11-26T06:38:42.657Z,100024.41
2017-11-26T06:41:08.929Z,100027.31
2017-11-26T06:43:35.212Z,100019.02
2017-11-26T06:46:01.449Z,100011.41
2017-11-26T06:48:27.689Z,100012.81
2017-11-26T06:50:53.968Z,100022.99
2017-11-26T06:53:20.202Z,100026.95
2017-11-26T06:55:46.445Z,100025.61
2017-11-26T06:58:12.735Z,100016.92
2017-11-26T07:00:38.957Z,100017.01
2017-11-26T07:03:05.175Z,100008.62
2017-11-26T07:05:31.445Z,100014.17
2017-11-26T07:07:57.695Z,100015.94
2017-11-26T07:10:23.916Z,100008.56
2017-11-26T07:12:50.177Z,100007.41
2017-11-26T07:15:16.422Z,100005.48
2017-11-26T07:17:42.675Z,100005.98
2017-11-26T07:20:08.932Z,100002.34
2017-11-26T07:22:35.167Z,100000.52
2017-11-26T07:25:01.406Z,99997.41
2017-11-26T07:27:27.661Z,99997.62
2017-11-26T07:29:53.893Z,99992.78
2017-11-26T07:32:20.108Z,99991.31
2017-11-26T07:34:46.468Z,99987.83
2017-11-26T07:37:12.715Z,99991.27
2017-11-26T07:39:38.959Z,99984.64
2017-11-26T07:42:05.242Z,99978.28
2017-11-26T07:44:31.470Z,99981.02
2017-11-26T07:46:57.804Z,99975.52
2017-11-26T07:49:24.080Z,99976.27
2017-11-26T07:51:50.308Z,99973.72
2017-11-26T07:54:16.546Z,99978.36
2017-11-26T07:56:42.814Z,99970.64
2017-11-26T07:59:09.048Z,99969.13
2017-11-26T08:01:35.286Z,99962.87
2017-11-26T08:04:01.552Z,99961.95
2017-11-26T08:06:27.780Z,99960.71
2017-11-26T08:08:54.026Z,99959.48
2017-11-26T08:11:20.297Z,99963.58
2017-11-26T08:13:46.512Z,99962.95
2017-11-26T08:16:12.750Z,99955.41
2017-11-26T08:18:39.012Z,99954.70
2017-11-26T08:21:05.300Z,99971.87
2017-11-26T08:23:31.520Z,99965.61
2017-11-26T08:25:57.899Z,99963.99
2017-11-26T08:28:24.129Z,99961.89
2017-11-26T08:30:50.369Z,99958.22
2017-11-26T08:33:16.633Z,99959.41
2017-11-26T08:35:43.045Z,99959.31
2017-11-26T08:38:09.272Z,99956.68
2017-11-26T08:40:35.547Z,99951.89
2017-11-26T08:43:01.791Z,99949.93
2017-11-26T08:45:28.015Z,99948.67
2017-11-26T08:47:54.301Z,99941.72
2017-11-26T08:50:20.547Z,99947.16
2017-11-26T08:52:46.779Z,99943.70
2017-11-26T08:55:13.048Z,99939.61
2017-11-26T08:57:39.301Z,99938.42
2017-11-26T09:00:05.715Z,99940.95
2017-11-26T09:02:31.994Z,99938.88
2017-11-26T09:04:58.371Z,99928.82
2017-11-26T09:07:24.642Z,99936.78
2017-11-26T09:09:50.916Z,99943.70
2017-11-26T09:12:17.166Z,99942.77
2017-11-26T09:14:43.410Z,99936.14
2017-11-26T09:17:09.693Z,99926.98
2017-11-26T09:19:35.957Z,99928.02
2017-11-26T09:22:02.189Z,99937.02
2017-11-26T09:24:28.448Z,99934.25
2017-11-26T09:26:54.685Z,99930.58
2017-11-26T09:29:20.963Z,99923.59
2017-11-26T09:31:47.275Z,99925.99
2017-11-26T09:34:13.531Z,99917.47
2017-11-26T09:36:39.777Z,99919.86
2017-11-26T09:39:06.052Z,99911.55
2017-11-26T09:41:32.283Z,99910.05
2017-11-26T09:43:58.484Z,99906.52
2017-11-26T09:46:24.745Z,99905.00
2017-11-26T09:48:50.983Z,99901.90
2017-11-26T09:51:17.200Z,99900.34
2017-11-26T09:53:43.465Z,99891.20
2017-11-26T09:56:09.669Z,99889.77
2017-11-26T09:58:35.887Z,99892.48
2017-11-26T10:01:02.161Z,99882.12
2017-11-26T10:03:28.405Z,99881.66
2017-11-26T10:05:54.648Z,99891.92
2017-11-26T10:08:20.906Z,99885.83
2017-11-26T10:10:47.122Z,99879.83
2017-11-26T10:13:13.334Z,99872.06
2017-11-26T10:15:39.625Z,99873.02
2017-11-26T10:18:05.852Z,99872.68
2017-11-26T10:20:32.087Z,99876.93
2017-11-26T10:22:58.364Z,99877.52
2017-11-26T10:25:24.606Z,99880.13
2017-11-26T10:27:50.829Z,99868.42
2017-11-26T10:30:17.092Z,99865.59
2017-11-26T10:32:43.326Z,99865.89
2017-11-26T10:35:09.551Z,99857.18
2017-11-26T10:37:35.838Z,99866.15
2017-11-26T10:40:02.071Z,99858.92
2017-11-26T10:42:28.304Z,99850.53
2017-11-26T10:44:54.669Z,99843.95
2017-11-26T10:47:20.926Z,99854.58
2017-11-26T10:49:47.168Z,99849.53
2017-11-26T10:52:13.451Z,99839.17
2017-11-26T10:54:39.701Z,99837.60
2017-11-26T10:57:05.935Z,99832.83
2017-11-26T10:59:32.199Z,99832.61
2017-11-26T11:01:58.412Z,99831.82
2017-11-26T11:04:24.686Z,99833.59
2017-11-26T11:06:51.000Z,99830.92
2017-11-26T11:09:17.236Z,99830.71
2017-11-26T11:11:43.469Z,99825.85
2017-11-26T11:14:09.726Z,99824.43
2017-11-26T11:16:35.935Z,99826.59
2017-11-26T11:19:02.159Z,99821.94
2017-11-26T11:21:28.428Z,99824.31
2017-11-26T11:23:54.808Z,99824.53
2017-11-26T11:26:21.052Z,99819.61
2017-11-26T11:28:47.302Z,99813.66
2017-11-26T11:31:13.529Z,99814.34
2017-11-26T11:33:39.746Z,99808.60
2017-11-26T11:36:06.016Z,99805.72
2017-11-26T11:38:32.271Z,99804.14
2017-11-26T11:40:58.492Z,99808.17
2017-11-26T11:43:24.703Z,99800.36
2017-11-26T11:45:50.980Z,99793.99
2017-11-26T11:48:17.225Z,99790.20
2017-11-26T11:50:43.553Z,99791.12
2017-11-26T11:53:09.985Z,99788.34
2017-11-26T11:55:36.210Z,99787.73
2017-11-26T11:58:02.434Z,99788.65
2017-11-26T12:00:28.721Z,99787.95
2017-11-26T12:02:54.955Z,99780.94
2017-11-26T12:05:21.340Z,99780.23
2017-11-26T12:07:47.607Z,99784.65
2017-11-26T12:10:13.824Z,99788.09
2017-11-26T12:12:40.047Z,99784.54
2017-11-26T12:15:06.324Z,99782.19
2017-11-26T12:17:32.546Z,99776.83
2017-11-26T12:19:58.912Z,99769.21
2017-11-26T12:22:25.169Z,99772.71
2017-11-26T12:24:51.404Z,99778.19
2017-11-26T12:27:17.649Z,99783.94
2017-11-26T12:29:43.919Z,99777.25
2017-11-26T12:32:10.184Z,99773.13
2017-11-26T12:34:36.397Z,99781.05
2017-11-26T12:37:02.656Z,99790.91
2017-11-26T12:39:28.934Z,99784.44
2017-11-26T12:41:55.182Z,99781.77
2017-11-26T12:44:21.453Z,99785.76
2017-11-26T12:46:47.667Z,99786.89
2017-11-26T12:49:13.905Z,99787.84
2017-11-26T12:51:40.190Z,99787.72
2017-11-26T12:54:06.527Z,99780.43
2017-11-26T12:56:32.760Z,99778.06
2017-11-26T12:58:59.042Z,99775.59
2017-11-26T13:01:25.270Z,99783.59
2017-11-26T13:03:51.511Z,99782.16
2017-11-26T13:06:17.764Z,99782.70
2017-11-26T13:08:44.001Z,99766.45
2017-11-26T13:11:10.229Z,99772.80
2017-11-26T13:13:36.491Z,99781.49
2017-11-26T13:16:02.737Z,99783.27
2017-11-26T13:18:29.007Z,99790.55
2017-11-26T13:20:55.281Z,99798.20
2017-11-26T13:23:21.530Z,99802.77
2017-11-26T13:25:47.805Z,99802.80
2017-11-26T13:28:14.099Z,99801.64
2017-11-26T13:30:40.328Z,99809.27
2017-11-26T13:33:06.591Z,99801.95
2017-11-26T13:35:32.837Z,99802.87
2017-11-26T13:37:59.070Z,99804.63
2017-11-26T13:40:25.359Z,99795.44
2017-11-26T13:42:51.565Z,99800.98
2017-11-26T13:45:17.782Z,99802.36
2017-11-26T13:47:44.050Z,99802.39
2017-11-26T13:50:10.313Z,99804.86
2017-11-26T13:52:36.569Z,99800.55
2017-11-26T13:55:03.046Z,99801.91
2017-11-26T13:57:29.415Z,99806.28
2017-11-26T13:59:55.647Z,99806.91
2017-11-26T14:02:21.909Z,99806.14
2017-11-26T14:04:48.132Z,99803.44
2017-11-26T14:07:14.365Z,99802.98
2017-11-26T14:09:40.602Z,99804.21
2017-11-26T14:12:06.831Z,99804.92
2017-11-26T14:14:33.067Z,99809.39
2017-11-26T14:16:59.471Z,99793.45
2017-11-26T14:19:25.775Z,99799.30
2017-11-26T14:21:52.009Z,99802.07
2017-11-26T14:24:18.279Z,99798.13
2017-11-26T14:26:44.642Z,99796.72
2017-11-26T14:29:10.890Z,99793.14
2017-11-26T14:31:37.154Z,99793.25
2017-11-26T14:34:03.440Z,99786.95
2017-11-26T14:36:29.655Z,99791.80
2017-11-26T14:38:55.901Z,99788.44
2017-11-26T14:41:22.153Z,99787.29
2017-11-26T14:43:48.388Z,99786.48
2017-11-26T14:46:14.636Z,99789.25
2017-11-26T14:48:40.870Z,99790.48
2017-11-26T14:51:07.106Z,99791.09
2017-11-26T14:53:33.384Z,99789.25
2017-11-26T14:55:59.668Z,99793.75
2017-11-26T14:58:25.895Z,99785.88
2017-11-26T15:00:52.625Z,99794.45
2017-11-26T15:03:18.870Z,99795.77
2017-11-26T15:05:45.105Z,99782.87
2017-11-26T15:08:11.522Z,99778.34
2017-11-26T15:10:37.784Z,99780.72
2017-11-26T15:13:04.009Z,99779.80
2017-11-26T15:15:30.307Z,99770.67
2017-11-26T15:17:56.528Z,99787.01
2017-11-26T15:20:22.741Z,99785.19
2017-11-26T15:22:48.993Z,99768.48
2017-11-26T15:25:15.226Z,99775.29
2017-11-26T15:27:41.464Z,99778.31
2017-11-26T15:30:07.751Z,99773.14
2017-11-26T15:32:33.978Z,99769.72
2017-11-26T15:35:00.207Z,99772.38
2017-11-26T15:37:26.468Z,99757.64
2017-11-26T15:39:52.695Z,99761.33
2017-11-26T15:42:18.924Z,99758.20
2017-11-26T15:44:45.185Z,99752.61
2017-11-26T15:47:11.429Z,99754.46
2017-11-26T15:49:37.643Z,99758.67
2017-11-26T15:52:03.930Z,99757.94
2017-11-26T15:54:30.160Z,99755.18
2017-11-26T15:56:56.396Z,99756.05
2017-11-26T15:59:22.679Z,99757.02
2017-11-26T16:01:48.994Z,99750.77
2017-11-26T16:04:15.228Z,99754.91
2017-11-26T16:06:41.508Z,99762.80
2017-11-26T16:09:07.753Z,99751.33
2017-11-26T16:11:33.996Z,99752.31
2017-11-26T16:14:00.258Z,99746.41
2017-11-26T16:16:26.490Z,99746.42
2017-11-26T16:18:52.724Z,99740.30
2017-11-26T16:21:19.008Z,99744.23
2017-11-26T16:23:45.263Z,99740.53
2017-11-26T16:26:11.500Z,99738.07
2017-11-26T16:28:37.768Z,99741.98
2017-11-26T16:31:04.037Z,99733.72
2017-11-26T16:33:30.300Z,99730.68
2017-11-26T16:35:56.563Z,99726.31
2017-11-26T16:38:22.822Z,99729.02
2017-11-26T16:40:49.262Z,99729.02
2017-11-26T16:43:15.529Z,99724.20
2017-11-26T16:45:41.774Z,99723.28
2017-11-26T16:48:07.996Z,99724.63
2017-11-26T16:50:34.280Z,99718.84
2017-11-26T16:53:00.540Z,99708.56
2017-11-26T16:55:26.785Z,99713.96
2017-11-26T16:57:53.044Z,99710.72
2017-11-26T17:00:19.275Z,99715.16
2017-11-26T17:02:45.515Z,99711.69
2017-11-26T17:05:11.825Z,99707.06
2017-11-26T17:07:38.072Z,99715.67
2017-11-26T17:10:04.315Z,99711.20
2017-11-26T17:12:30.608Z,99708.43
2017-11-26T17:14:56.862Z,99705.86
2017-11-26T17:17:23.133Z,99698.09
2017-11-26T17:19:49.401Z,99694.88
2017-11-26T17:22:15.630Z,99693.22
2017-11-26T17:24:41.856Z,99691.14
2017-11-26T17:27:08.177Z,99696.42
2017-11-26T17:29:34.424Z,99694.98
2017-11-26T17:32:00.657Z,99697.03
2017-11-26T17:34:26.919Z,99698.77
2017-11-26T17:36:53.148Z,99695.00
2017-11-26T17:39:19.375Z,99689.27
2017-11-26T17:41:45.652Z,99692.86
2017-11-26T17:44:11.889Z,99683.44
2017-11-26T17:46:38.140Z,99687.94
2017-11-26T17:49:04.414Z,99679.98
2017-11-26T17:51:30.662Z,99675.44
2017-11-26T17:53:56.898Z,99675.01
2017-11-26T17:56:23.775Z,99675.17
2017-11-26T17:58:50.008Z,99672.58
2017-11-26T18:01:16.250Z,99676.53
2017-11-26T18:03:42.515Z,99672.47
2017-11-26T18:06:08.765Z,99668.80
2017-11-26T18:08:35.008Z,99672.43
2017-11-26T18:11:01.290Z,99676.26
2017-11-26T18:13:27.521Z,99659.72
2017-11-26T18:15:53.751Z,99661.56
2017-11-26T18:18:20.023Z,99662.38
2017-11-26T18:20:46.324Z,99658.00
2017-11-26T18:23:12.614Z,99662.12
2017-11-26T18:25:38.899Z,99663.71
2017-11-26T18:28:05.154Z,99660.36
2017-11-26T18:30:31.407Z,99666.06
2017-11-26T18:32:57.685Z,99668.59
2017-11-26T18:35:23.935Z,99668.95
2017-11-26T18:37:50.179Z,99666.52
2017-11-26T18:40:16.516Z,99659.97
2017-11-26T18:42:42.757Z,99658.50
2017-11-26T18:45:09.011Z,99657.72
2017-11-26T18:47:35.344Z,99659.08
2017-11-26T18:50:01.600Z,99661.13
2017-11-26T18:52:27.866Z,99654.86
2017-11-26T18:54:54.144Z,99648.98
2017-11-26T18:57:20.378Z,99657.64
2017-11-26T18:59:46.622Z,99645.91
2017-11-26T19:02:12.889Z,99653.48
2017-11-26T19:04:39.145Z,99650.92
2017-11-26T19:07:05.439Z,99649.09
2017-11-26T19:09:31.714Z,99647.19
2017-11-26T19:11:57.948Z,99652.30
2017-11-26T19:14:24.196Z,99644.67
2017-11-26T19:16:50.472Z,99650.09
2017-11-26T19:19:16.842Z,99643.20
2017-11-26T19:21:43.144Z,99639.91
2017-11-26T19:24:09.455Z,99646.70
2017-11-26T19:26:35.714Z,99643.53
2017-11-26T19:29:01.966Z,99649.51
2017-11-26T19:31:28.241Z,99643.27
2017-11-26T19:33:54.477Z,99647.80
2017-11-26T19:36:20.845Z,99657.78
2017-11-26T19:38:47.139Z,99652.39
2017-11-26T19:41:13.424Z,99660.98
2017-11-26T19:43:39.690Z,99660.11
2017-11-26T19:46:05.930Z,99656.16
2017-11-26T19:48:32.157Z,99646.98
2017-11-26T19:50:58.419Z,99649.72
2017-11-26T19:53:24.726Z,99646.45
2017-11-26T19:55:50.981Z,99644.67
2017-11-26T19:58:17.265Z,99645.45
2017-11-26T20:00:43.517Z,99646.35
2017-11-26T20:03:09.743Z,99645.55
2017-11-26T20:05:36.024Z,99645.01
2017-11-26T20:08:02.310Z,99650.37
2017-11-26T20:10:28.617Z,99649.81
2017-11-26T20:12:54.884Z,99648.03
2017-11-26T20:15:21.124Z,99655.51
2017-11-26T20:17:47.427Z,99652.75
2017-11-26T20:20:13.718Z,99648.79
2017-11-26T20:22:39.970Z,99642.34
2017-11-26T20:25:06.393Z,99633.90
2017-11-26T20:27:32.681Z,99636.92
2017-11-26T20:29:58.931Z,99637.28
2017-11-26T20:32:25.173Z,99636.40
2017-11-26T20:34:51.517Z,99632.47
2017-11-26T20:37:17.788Z,99627.44
2017-11-26T20:39:44.089Z,99628.22
2017-11-26T20:42:10.331Z,99628.16
2017-11-26T20:44:36.582Z,99631.34
2017-11-26T20:47:02.861Z,99627.69
2017-11-26T20:49:29.092Z,99626.58
2017-11-26T20:51:55.340Z,99625.25
2017-11-26T20:54:21.609Z,99625.19
2017-11-26T20:56:47.857Z,99627.34
2017-11-26T20:59:14.107Z,99626.58
2017-11-26T21:01:40.414Z,99627.80
2017-11-26T21:04:06.649Z,99619.05
2017-11-26T21:06:33.091Z,99616.75
2017-11-26T21:08:59.385Z,99607.33
2017-11-26T21:11:25.629Z,99608.70
2017-11-26T21:13:51.856Z,99605.16
2017-11-26T21:16:18.127Z,99613.81
2017-11-26T21:18:44.385Z,99616.23
2017-11-26T21:21:10.663Z,99615.97
2017-11-26T21:23:36.933Z,99618.99
2017-11-26T21:26:03.164Z,99618.08
2017-11-26T21:28:29.411Z,99621.11
2017-11-26T21:30:55.794Z,99620.23
2017-11-26T21:33:22.061Z,99627.50
2017-11-26T21:35:48.293Z,99634.98
2017-11-26T21:38:14.546Z,99636.55
2017-11-26T21:40:40.901Z,99631.44
2017-11-26T21:43:07.171Z,99628.06
2017-11-26T21:45:33.434Z,99633.95
2017-11-26T21:47:59.661Z,99638.82
2017-11-26T21:50:25.890Z,99638.41
2017-11-26T21:52:52.177Z,99645.41
2017-11-26T21:55:18.408Z,99640.34
2017-11-26T21:57:44.727Z,99637.63
2017-11-26T22:00:11.009Z,99635.22
2017-11-26T22:02:37.278Z,99637.88
2017-11-26T22:05:03.538Z,99642.48
2017-11-26T22:07:29.822Z,99643.98
2017-11-26T22:09:56.055Z,99651.34
2017-11-26T22:12:22.314Z,99649.34
2017-11-26T22:14:48.601Z,99648.78
2017-11-26T22:17:14.856Z,99652.00
2017-11-26T22:19:41.130Z,99641.46
2017-11-26T22:22:07.421Z,99644.59
2017-11-26T22:24:33.682Z,99644.63
2017-11-26T22:26:59.907Z,99653.06
2017-11-26T22:29:26.168Z,99652.36
2017-11-26T22:31:52.546Z,99657.13
2017-11-26T22:34:18.790Z,99663.27
2017-11-26T22:36:45.088Z,99663.93
2017-11-26T22:39:11.412Z,99662.23
2017-11-26T22:41:37.653Z,99667.45
2017-11-26T22:44:03.946Z,99678.77
2017-11-26T22:46:30.200Z,99681.12
2017-11-26T22:48:56.446Z,99687.27
2017-11-26T22:51:22.732Z,99680.91
2017-11-26T22:53:49.003Z,99685.16
2017-11-26T22:56:15.252Z,99667.55
2017-11-26T22:58:41.535Z,99689.05
2017-11-26T23:01:07.787Z,99701.08
2017-11-26T23:03:34.088Z,99696.54
2017-11-26T23:06:00.381Z,99688.34
2017-11-26T23:08:26.621Z,99681.39
2017-11-26T23:10:52.859Z,99688.55
2017-11-26T23:13:19.161Z,99691.66
2017-11-26T23:15:45.396Z,99699.53
2017-11-26T23:18:11.624Z,99705.45
2017-11-26T23:20:37.899Z,99711.85
2017-11-26T23:23:04.160Z,99710.06
2017-11-26T23:25:30.462Z,99714.05
2017-11-26T23:27:56.770Z,99718.70
2017-11-26T23:30:23.053Z,99720.31
2017-11-26T23:32:49.296Z,99724.02
2017-11-26T23:35:15.564Z,99699.81
2017-11-26T23:37:41.805Z,99728.98
2017-11-26T23:40:08.116Z,99725.05
2017-11-26T23:42:34.429Z,99734.90
2017-11-26T23:45:00.687Z,99734.41
2017-11-26T23:47:26.934Z,99735.23
2017-11-26T23:49:53.252Z,99736.14
2017-11-26T23:52:19.502Z,99751.30
2017-11-26T23:54:45.759Z,99745.40
2017-11-26T23:57:12.084Z,99753.94
2017-11-26T23:59:38.313Z,99747.12
